createdAt,value
2023-01-31T00:01:40.383Z,79.69
2023-01-31T00:04:11.258Z,79.87
2023-01-31T00:06:40.472Z,78.28
2023-01-31T00:09:08.216Z,77.29
2023-01-31T00:11:50.183Z,77.37
2023-01-31T00:14:20.090Z,77.00
2023-01-31T00:16:46.792Z,75.74
2023-01-31T00:19:15.745Z,75.85
2023-01-31T00:21:42.617Z,75.32
2023-01-31T00:24:12.625Z,76.69
2023-01-31T00:26:39.846Z,75.32
2023-01-31T00:29:07.984Z,76.53
2023-01-31T00:31:35.163Z,77.08
2023-01-31T00:34:02.120Z,78.35
2023-01-31T00:36:33.595Z,76.54
2023-01-31T00:39:07.182Z,75.46
2023-01-31T00:41:38.509Z,75.59
2023-01-31T00:44:06.700Z,75.85
2023-01-31T00:46:33.531Z,75.63
2023-01-31T00:49:00.308Z,75.85
2023-01-31T00:51:27.252Z,76.10
2023-01-31T00:53:54.090Z,75.70
2023-01-31T00:56:22.276Z,75.58
2023-01-31T00:58:49.388Z,75.61
2023-01-31T01:01:18.323Z,76.10
2023-01-31T01:03:45.271Z,75.97
2023-01-31T01:06:13.568Z,75.86
2023-01-31T01:08:40.607Z,75.56
2023-01-31T01:11:10.842Z,75.94
2023-01-31T01:13:37.659Z,75.79
2023-01-31T01:16:09.673Z,75.34
2023-01-31T01:18:36.661Z,74.98
2023-01-31T01:21:10.884Z,75.19
2023-01-31T01:23:39.333Z,75.21
2023-01-31T01:26:06.169Z,75.07
2023-01-31T01:28:34.358Z,75.20
2023-01-31T01:31:07.824Z,75.11
2023-01-31T01:33:35.563Z,74.54
2023-01-31T01:36:03.321Z,73.94
2023-01-31T01:38:30.363Z,73.58
2023-01-31T01:40:57.234Z,71.62
2023-01-31T01:43:39.853Z,73.02
2023-01-31T01:46:06.851Z,72.35
2023-01-31T01:48:33.930Z,73.17
2023-01-31T01:51:01.201Z,73.18
2023-01-31T01:53:28.409Z,74.59
2023-01-31T01:55:57.776Z,74.35
2023-01-31T01:58:46.637Z,74.65
2023-01-31T02:01:14.456Z,74.64
2023-01-31T02:03:41.588Z,73.99
2023-01-31T02:06:08.364Z,73.42
2023-01-31T02:08:36.200Z,73.54
2023-01-31T02:11:25.079Z,74.05
2023-01-31T02:14:02.287Z,73.58
2023-01-31T02:16:29.522Z,72.99
2023-01-31T02:18:57.759Z,73.92
2023-01-31T02:21:39.636Z,73.10
2023-01-31T02:24:41.100Z,72.73
2023-01-31T02:27:23.272Z,72.94
2023-01-31T02:30:07.406Z,71.84
2023-01-31T02:32:52.981Z,70.85
2023-01-31T02:35:39.169Z,69.53
2023-01-31T02:38:19.297Z,67.99
2023-01-31T02:40:54.993Z,68.38
2023-01-31T02:43:30.382Z,74.28
2023-01-31T02:46:02.239Z,75.11
2023-01-31T02:48:51.824Z,74.21
2023-01-31T02:51:24.464Z,73.47
2023-01-31T02:53:53.883Z,74.25
2023-01-31T02:56:31.097Z,72.24
2023-01-31T02:59:07.956Z,74.85
2023-01-31T03:01:43.675Z,73.04
2023-01-31T03:04:11.803Z,71.19
2023-01-31T03:06:41.281Z,71.05
2023-01-31T03:09:18.459Z,73.16
2023-01-31T03:12:39.424Z,74.30
2023-01-31T03:15:27.514Z,74.12
2023-01-31T03:21:57.179Z,75.10
2023-01-31T03:24:28.146Z,73.10
2023-01-31T03:26:58.010Z,74.00
2023-01-31T03:29:24.982Z,74.21
2023-01-31T03:32:00.995Z,76.30
2023-01-31T03:34:27.765Z,77.75
2023-01-31T03:36:56.377Z,76.19
2023-01-31T03:39:29.023Z,75.82
2023-01-31T03:41:59.392Z,75.30
2023-01-31T03:44:49.952Z,75.48
2023-01-31T03:47:21.560Z,74.95
2023-01-31T03:49:49.862Z,77.71
2023-01-31T03:52:20.847Z,79.59
2023-01-31T03:54:49.312Z,78.00
2023-01-31T03:57:23.035Z,75.13
2023-01-31T03:59:50.761Z,74.87
2023-01-31T04:02:23.576Z,76.60
2023-01-31T04:04:59.313Z,76.62
2023-01-31T04:07:26.081Z,75.79
2023-01-31T04:09:52.789Z,74.91
2023-01-31T04:12:19.870Z,75.80
2023-01-31T04:14:46.628Z,75.37
2023-01-31T04:17:13.459Z,74.29
2023-01-31T04:19:40.575Z,74.08
2023-01-31T04:22:07.328Z,71.95
2023-01-31T04:24:34.160Z,72.15
2023-01-31T04:27:00.961Z,74.14
2023-01-31T04:29:27.801Z,77.98
2023-01-31T04:31:54.870Z,75.97
2023-01-31T04:34:21.628Z,78.11
2023-01-31T04:36:48.385Z,78.04
2023-01-31T04:39:15.065Z,75.23
2023-01-31T04:41:43.232Z,73.39
2023-01-31T04:44:10.471Z,73.68
2023-01-31T04:46:37.182Z,76.42
2023-01-31T04:49:03.993Z,75.20
2023-01-31T04:51:30.691Z,74.22
2023-01-31T04:53:57.397Z,72.41
2023-01-31T04:56:24.451Z,73.81
2023-01-31T04:58:51.144Z,78.91
2023-01-31T05:01:18.271Z,77.97
2023-01-31T05:03:45.416Z,76.31
2023-01-31T05:06:12.189Z,76.19
2023-01-31T05:08:39.269Z,78.58
2023-01-31T05:11:06.353Z,80.83
2023-01-31T05:13:33.970Z,80.61
2023-01-31T05:16:00.825Z,80.37
2023-01-31T05:18:27.604Z,79.68
2023-01-31T05:20:54.283Z,79.62
2023-01-31T05:23:20.979Z,78.78
2023-01-31T05:25:49.332Z,78.23
2023-01-31T05:28:16.042Z,79.81
2023-01-31T05:30:43.258Z,79.08
2023-01-31T05:33:10.539Z,79.11
2023-01-31T05:35:37.553Z,80.34
2023-01-31T05:38:04.441Z,79.31
2023-01-31T05:40:31.218Z,78.33
2023-01-31T05:42:58.665Z,78.16
2023-01-31T05:45:25.664Z,76.51
2023-01-31T05:47:52.436Z,74.81
2023-01-31T05:50:20.492Z,74.05
2023-01-31T05:56:28.281Z,79.87
2023-01-31T05:58:55.477Z,79.60
2023-01-31T06:01:23.746Z,79.94
2023-01-31T06:03:50.497Z,78.70
2023-01-31T06:06:17.333Z,77.58
2023-01-31T06:08:45.336Z,75.36
2023-01-31T06:11:12.297Z,76.39
2023-01-31T06:13:39.918Z,81.47
2023-01-31T06:16:07.027Z,81.94
2023-01-31T06:18:33.730Z,81.25
2023-01-31T06:21:00.585Z,82.41
2023-01-31T06:23:27.729Z,81.29
2023-01-31T06:25:54.519Z,79.35
2023-01-31T06:28:21.677Z,80.59
2023-01-31T06:30:48.515Z,80.37
2023-01-31T06:33:15.280Z,81.49
2023-01-31T06:35:43.607Z,82.22
2023-01-31T06:38:40.244Z,79.75
2023-01-31T06:41:07.339Z,81.80
2023-01-31T06:43:34.068Z,79.98
2023-01-31T06:46:00.967Z,81.66
2023-01-31T06:48:27.660Z,81.17
2023-01-31T06:50:54.570Z,80.74
2023-01-31T06:53:21.431Z,81.21
2023-01-31T06:55:48.487Z,82.50
2023-01-31T06:58:15.300Z,82.74
2023-01-31T07:00:41.984Z,82.92
2023-01-31T07:03:09.025Z,83.29
2023-01-31T07:05:36.828Z,83.37
2023-01-31T07:08:03.966Z,83.09
2023-01-31T07:10:31.301Z,82.71
2023-01-31T07:13:00.978Z,82.11
2023-01-31T07:15:29.007Z,81.67
2023-01-31T07:18:00.163Z,81.92
2023-01-31T07:20:27.411Z,81.77
2023-01-31T07:22:56.754Z,81.62
2023-01-31T07:25:23.866Z,81.07
2023-01-31T07:27:50.714Z,80.44
2023-01-31T07:30:19.925Z,78.97
2023-01-31T07:32:51.877Z,76.61
2023-01-31T07:35:20.038Z,73.29
2023-01-31T07:37:48.075Z,71.05
2023-01-31T07:40:18.215Z,69.94
2023-01-31T07:42:44.917Z,70.76
2023-01-31T07:45:23.435Z,74.25
2023-01-31T07:47:51.337Z,77.09
2023-01-31T07:50:21.576Z,77.01
2023-01-31T07:52:49.365Z,77.00
2023-01-31T07:55:17.846Z,77.41
2023-01-31T07:57:46.190Z,76.24
2023-01-31T08:00:21.071Z,76.23
2023-01-31T08:02:53.152Z,76.67
2023-01-31T08:05:20.183Z,77.29
2023-01-31T08:07:47.478Z,76.01
2023-01-31T08:10:20.312Z,72.17
2023-01-31T08:12:49.436Z,74.22
2023-01-31T08:15:17.261Z,74.54
2023-01-31T08:17:45.185Z,75.30
2023-01-31T08:20:12.411Z,75.09
2023-01-31T08:22:39.230Z,74.20
2023-01-31T08:25:07.308Z,72.24
2023-01-31T08:27:34.166Z,69.29
2023-01-31T08:30:06.616Z,66.54
2023-01-31T08:32:33.572Z,63.59
2023-01-31T08:35:03.394Z,63.30
2023-01-31T08:37:30.532Z,61.34
2023-01-31T08:39:57.388Z,61.88
2023-01-31T08:42:25.344Z,65.91
2023-01-31T08:44:52.226Z,64.03
2023-01-31T08:51:12.912Z,60.61
2023-01-31T08:53:42.128Z,59.18
2023-01-31T08:56:11.823Z,58.86
2023-01-31T08:58:39.945Z,61.09
2023-01-31T09:01:08.746Z,63.83
2023-01-31T09:03:36.733Z,61.39
2023-01-31T09:06:05.523Z,63.24
2023-01-31T09:08:32.684Z,62.79
2023-01-31T09:11:02.401Z,61.06
2023-01-31T09:13:30.199Z,60.10
2023-01-31T09:16:01.060Z,59.92
2023-01-31T09:18:32.259Z,59.85
2023-01-31T09:21:09.420Z,57.63
2023-01-31T09:23:42.796Z,60.03
2023-01-31T09:26:12.985Z,60.96
2023-01-31T09:28:39.816Z,60.15
2023-01-31T09:31:09.576Z,61.77
2023-01-31T09:33:37.216Z,61.71
2023-01-31T09:36:09.476Z,62.05
2023-01-31T09:38:39.097Z,59.13
2023-01-31T09:41:14.299Z,59.45
2023-01-31T09:43:43.072Z,58.15
2023-01-31T09:46:15.298Z,56.67
2023-01-31T09:48:44.071Z,58.50
2023-01-31T09:51:11.265Z,57.62
2023-01-31T09:53:38.311Z,56.24
2023-01-31T09:56:21.537Z,58.55
2023-01-31T09:59:22.935Z,59.20
2023-01-31T10:01:59.111Z,57.16
2023-01-31T10:04:50.840Z,54.49
2023-01-31T10:11:01.877Z,58.19
2023-01-31T10:13:33.275Z,58.51
2023-01-31T10:16:21.674Z,59.32
2023-01-31T10:18:50.159Z,58.88
2023-01-31T10:21:23.050Z,59.21
2023-01-31T10:24:17.438Z,58.77
2023-01-31T10:26:45.889Z,58.99
2023-01-31T10:29:25.595Z,61.69
2023-01-31T10:35:12.965Z,56.47
2023-01-31T10:37:46.315Z,55.68
2023-01-31T10:40:13.542Z,55.90
2023-01-31T10:42:40.720Z,54.16
2023-01-31T10:45:19.080Z,54.03
2023-01-31T10:47:52.952Z,54.81
2023-01-31T10:50:58.312Z,56.80
2023-01-31T10:53:40.713Z,59.31
2023-01-31T10:56:26.567Z,61.45
2023-01-31T10:58:56.740Z,58.31
2023-01-31T11:01:23.483Z,56.57
2023-01-31T11:03:52.169Z,56.18
2023-01-31T11:06:19.559Z,57.44
2023-01-31T11:08:49.696Z,56.22
2023-01-31T11:11:18.792Z,56.14
2023-01-31T11:14:06.342Z,56.68
2023-01-31T11:16:37.593Z,57.02
2023-01-31T11:19:27.384Z,57.76
2023-01-31T11:21:54.547Z,57.93
2023-01-31T11:24:23.320Z,59.73
2023-01-31T11:27:00.586Z,59.54
2023-01-31T11:29:48.547Z,61.04
2023-01-31T11:32:22.924Z,60.80
2023-01-31T11:35:05.950Z,60.19
2023-01-31T11:37:34.522Z,61.24
2023-01-31T11:40:22.606Z,58.81
2023-01-31T11:43:03.359Z,56.62
2023-01-31T11:45:54.532Z,55.77
2023-01-31T11:48:27.018Z,53.42
2023-01-31T11:50:57.829Z,53.15
2023-01-31T11:53:34.443Z,55.31
2023-01-31T11:56:13.214Z,58.89
2023-01-31T11:58:40.095Z,57.10
2023-01-31T12:01:09.079Z,57.29
2023-01-31T12:04:00.857Z,56.32
2023-01-31T12:06:36.666Z,53.81
2023-01-31T12:09:07.257Z,56.22
2023-01-31T12:11:35.731Z,59.02
2023-01-31T12:14:14.394Z,55.59
2023-01-31T12:16:41.528Z,54.45
2023-01-31T12:19:36.013Z,52.79
2023-01-31T12:22:21.396Z,52.21
2023-01-31T12:25:04.752Z,53.05
2023-01-31T12:27:52.625Z,54.91
2023-01-31T12:30:33.360Z,52.37
2023-01-31T12:33:13.507Z,53.02
2023-01-31T12:35:53.476Z,52.63
2023-01-31T12:38:56.529Z,55.21
2023-01-31T12:41:33.749Z,57.40
2023-01-31T12:44:17.662Z,56.18
2023-01-31T12:47:10.899Z,56.69
2023-01-31T12:52:41.661Z,54.68
2023-01-31T12:55:33.405Z,51.64
2023-01-31T12:58:29.254Z,49.71
2023-01-31T13:01:05.708Z,49.89
2023-01-31T13:04:12.025Z,49.38
2023-01-31T13:06:45.930Z,51.72
2023-01-31T13:09:46.680Z,52.62
2023-01-31T13:12:17.516Z,50.40
2023-01-31T13:14:48.653Z,51.92
2023-01-31T13:17:23.380Z,50.72
2023-01-31T13:19:59.022Z,51.81
2023-01-31T13:22:44.290Z,52.13
2023-01-31T13:25:38.827Z,50.46
2023-01-31T13:28:11.993Z,47.82
2023-01-31T13:30:47.895Z,48.27
2023-01-31T13:33:23.674Z,47.01
2023-01-31T13:36:15.571Z,47.49
2023-01-31T13:38:45.767Z,48.38
2023-01-31T13:41:32.998Z,48.49
2023-01-31T13:44:01.233Z,49.97
2023-01-31T13:46:38.767Z,52.22
2023-01-31T13:49:35.160Z,48.67
2023-01-31T13:52:03.819Z,48.20
2023-01-31T13:54:41.933Z,48.83
2023-01-31T13:57:31.195Z,51.43
2023-01-31T14:00:25.283Z,50.26
2023-01-31T14:03:13.407Z,51.39
2023-01-31T14:05:43.475Z,47.39
2023-01-31T14:08:27.483Z,51.26
2023-01-31T14:10:55.636Z,53.14
2023-01-31T14:13:38.144Z,53.11
2023-01-31T14:16:26.084Z,51.41
2023-01-31T14:18:52.893Z,49.45
2023-01-31T14:21:31.859Z,52.87
2023-01-31T14:24:02.612Z,50.81
2023-01-31T14:26:33.253Z,49.84
2023-01-31T14:29:00.683Z,50.79
2023-01-31T14:31:27.744Z,51.20
2023-01-31T14:33:54.697Z,51.42
2023-01-31T14:36:42.929Z,49.59
2023-01-31T14:39:38.309Z,48.96
2023-01-31T14:42:17.752Z,51.15
2023-01-31T14:44:51.632Z,48.64
2023-01-31T14:47:28.623Z,48.73
2023-01-31T14:50:21.331Z,50.23
2023-01-31T14:53:30.022Z,49.89
2023-01-31T14:56:09.845Z,49.16
2023-01-31T14:58:36.694Z,50.36
2023-01-31T15:01:05.482Z,50.29
2023-01-31T15:03:37.937Z,52.40
2023-01-31T15:06:31.861Z,51.93
2023-01-31T15:09:47.031Z,53.70
2023-01-31T15:12:52.012Z,51.96
2023-01-31T15:15:39.143Z,51.91
2023-01-31T15:18:19.795Z,52.71
2023-01-31T15:20:50.460Z,53.43
2023-01-31T15:23:21.439Z,54.89
2023-01-31T15:25:48.248Z,56.22
2023-01-31T15:28:20.418Z,57.02
2023-01-31T15:30:47.542Z,55.91
2023-01-31T15:33:29.979Z,55.17
2023-01-31T15:36:00.138Z,54.55
2023-01-31T15:38:31.345Z,53.42
2023-01-31T15:41:35.552Z,52.75
2023-01-31T15:44:20.123Z,51.95
2023-01-31T15:46:48.264Z,51.02
2023-01-31T15:49:38.121Z,51.59
2023-01-31T15:52:08.652Z,51.88
2023-01-31T15:54:35.459Z,52.52
2023-01-31T15:57:02.494Z,52.80
2023-01-31T15:59:30.256Z,53.28
2023-01-31T16:01:59.875Z,54.44
2023-01-31T16:04:26.676Z,54.77
2023-01-31T16:06:53.390Z,56.05
2023-01-31T16:09:30.994Z,58.08
2023-01-31T16:12:01.841Z,57.10
2023-01-31T16:14:30.269Z,57.82
2023-01-31T16:19:40.893Z,60.03
2023-01-31T16:22:37.866Z,59.94
2023-01-31T16:25:05.866Z,61.22
2023-01-31T16:27:36.948Z,61.90
2023-01-31T16:30:04.024Z,63.78
2023-01-31T16:32:49.004Z,66.19
2023-01-31T16:36:12.501Z,69.95
2023-01-31T16:38:41.567Z,70.63
2023-01-31T16:41:08.535Z,70.70
2023-01-31T16:43:35.222Z,70.25
2023-01-31T16:46:06.059Z,67.51
2023-01-31T16:48:36.857Z,66.15
2023-01-31T16:51:42.574Z,63.20
2023-01-31T16:54:22.341Z,62.06
2023-01-31T16:57:03.691Z,63.05
2023-01-31T16:59:33.216Z,66.13
2023-01-31T17:02:35.542Z,69.58
2023-01-31T17:05:15.131Z,70.31
2023-01-31T17:07:44.343Z,70.64
2023-01-31T17:10:17.627Z,68.79
2023-01-31T17:12:46.221Z,69.15
2023-01-31T17:15:33.373Z,66.83
2023-01-31T17:18:01.251Z,64.19
2023-01-31T17:20:31.035Z,63.44
2023-01-31T17:23:04.905Z,69.00
2023-01-31T17:25:35.856Z,70.35
2023-01-31T17:28:04.502Z,71.05
2023-01-31T17:30:32.831Z,72.16
2023-01-31T17:33:00.456Z,72.88
2023-01-31T17:35:32.572Z,71.68
2023-01-31T17:37:59.434Z,68.32
2023-01-31T17:40:26.728Z,66.35
2023-01-31T17:42:57.597Z,65.63
2023-01-31T17:45:25.602Z,69.02
2023-01-31T17:47:52.664Z,70.59
2023-01-31T17:50:24.455Z,70.46
2023-01-31T17:52:52.740Z,70.52
2023-01-31T17:55:19.775Z,71.23
2023-01-31T17:57:52.262Z,70.09
2023-01-31T18:00:19.403Z,67.43
2023-01-31T18:02:47.130Z,65.84
2023-01-31T18:05:18.704Z,69.70
2023-01-31T18:07:49.287Z,71.01
2023-01-31T18:10:17.637Z,68.84
2023-01-31T18:12:45.102Z,66.18
2023-01-31T18:15:12.308Z,65.33
2023-01-31T18:17:39.020Z,65.24
2023-01-31T18:20:07.865Z,63.49
2023-01-31T18:22:35.621Z,61.87
2023-01-31T18:25:04.133Z,61.68
2023-01-31T18:27:31.151Z,60.76
2023-01-31T18:29:58.186Z,64.52
2023-01-31T18:32:25.411Z,64.11
2023-01-31T18:34:52.391Z,63.18
2023-01-31T18:37:19.265Z,65.98
2023-01-31T18:39:49.957Z,68.26
2023-01-31T18:42:18.704Z,70.40
2023-01-31T18:44:45.754Z,72.02
2023-01-31T18:47:17.611Z,73.38
2023-01-31T18:49:44.362Z,74.45
2023-01-31T18:52:11.135Z,74.08
2023-01-31T18:54:37.873Z,74.50
2023-01-31T18:57:07.549Z,74.51
2023-01-31T18:59:34.961Z,74.34
2023-01-31T19:02:01.797Z,71.89
2023-01-31T19:04:28.905Z,70.04
2023-01-31T19:06:56.024Z,71.23
2023-01-31T19:09:23.971Z,72.12
2023-01-31T19:11:51.024Z,73.29
2023-01-31T19:14:17.938Z,73.97
2023-01-31T19:16:47.646Z,75.14
2023-01-31T19:19:14.916Z,74.85
2023-01-31T19:21:41.686Z,75.51
2023-01-31T19:24:12.080Z,76.69
2023-01-31T19:26:38.901Z,77.30
2023-01-31T19:29:09.594Z,76.73
2023-01-31T19:32:16.057Z,76.45
2023-01-31T19:34:43.349Z,76.01
2023-01-31T19:37:11.164Z,77.38
2023-01-31T19:39:38.054Z,76.24
2023-01-31T19:42:05.133Z,74.34
2023-01-31T19:44:32.173Z,74.67
2023-01-31T19:46:58.980Z,74.12
2023-01-31T19:49:25.845Z,73.40
2023-01-31T19:55:51.960Z,69.73
2023-01-31T19:58:18.657Z,68.63
2023-01-31T20:00:46.049Z,68.87
2023-01-31T20:03:14.050Z,69.40
2023-01-31T20:05:41.201Z,69.87
2023-01-31T20:08:08.320Z,69.48
2023-01-31T20:10:35.852Z,68.76
2023-01-31T20:13:02.550Z,68.59
2023-01-31T20:15:30.126Z,68.40
2023-01-31T20:17:57.645Z,68.76
2023-01-31T20:20:26.501Z,68.83
2023-01-31T20:22:53.485Z,68.56
2023-01-31T20:25:21.637Z,69.44
2023-01-31T20:27:49.645Z,69.30
2023-01-31T20:30:16.390Z,69.65
2023-01-31T20:32:43.142Z,69.80
2023-01-31T20:35:10.044Z,71.07
2023-01-31T20:37:37.107Z,70.69
2023-01-31T20:40:03.964Z,70.69
2023-01-31T20:42:33.110Z,70.25
2023-01-31T20:45:05.397Z,69.04
2023-01-31T20:48:28.948Z,67.53
2023-01-31T20:50:56.097Z,67.42
2023-01-31T20:53:22.907Z,65.26
2023-01-31T20:55:56.345Z,67.43
2023-01-31T20:58:24.600Z,71.45
2023-01-31T21:00:55.074Z,72.40
2023-01-31T21:03:21.937Z,72.07
2023-01-31T21:05:49.238Z,72.51
2023-01-31T21:08:16.547Z,73.23
2023-01-31T21:10:56.964Z,73.10
2023-01-31T21:13:25.097Z,72.34
2023-01-31T21:15:52.574Z,71.61
2023-01-31T21:18:19.828Z,69.94
2023-01-31T21:20:47.272Z,69.16
2023-01-31T21:23:14.104Z,69.61
2023-01-31T21:25:41.219Z,67.68
2023-01-31T21:28:09.810Z,68.37
2023-01-31T21:30:36.745Z,66.64
2023-01-31T21:33:06.436Z,68.24
2023-01-31T21:35:33.933Z,67.34
2023-01-31T21:38:01.024Z,65.89
2023-01-31T21:40:27.756Z,65.20
2023-01-31T21:42:55.767Z,63.38
2023-01-31T21:45:23.649Z,62.48
2023-01-31T21:47:50.350Z,60.70
2023-01-31T21:50:17.378Z,64.07
2023-01-31T21:52:44.092Z,69.79
2023-01-31T21:55:10.852Z,71.80
2023-01-31T21:57:37.701Z,71.98
2023-01-31T22:00:04.805Z,72.07
2023-01-31T22:02:31.515Z,68.70
2023-01-31T22:04:58.242Z,66.70
2023-01-31T22:07:24.941Z,72.68
2023-01-31T22:09:52.133Z,73.93
2023-01-31T22:12:19.009Z,74.19
2023-01-31T22:14:45.832Z,75.01
2023-01-31T22:17:12.531Z,74.97
2023-01-31T22:19:39.222Z,75.61
2023-01-31T22:22:05.986Z,75.61
2023-01-31T22:24:32.663Z,76.05
2023-01-31T22:26:59.409Z,75.11
2023-01-31T22:29:26.164Z,73.80
2023-01-31T22:31:53.040Z,75.25
2023-01-31T22:34:19.829Z,76.02
2023-01-31T22:36:53.569Z,76.12
2023-01-31T22:39:20.273Z,75.65
2023-01-31T22:41:47.393Z,76.27
2023-01-31T22:44:30.400Z,77.81
2023-01-31T22:46:57.091Z,78.17
2023-01-31T22:49:23.827Z,78.03
2023-01-31T22:51:50.540Z,77.68
2023-01-31T22:54:17.544Z,78.88
2023-01-31T22:56:44.430Z,78.28
2023-01-31T22:59:11.188Z,79.80
2023-01-31T23:01:38.128Z,80.38
2023-01-31T23:04:07.907Z,80.32
2023-01-31T23:06:34.760Z,80.39
2023-01-31T23:09:01.445Z,79.72
2023-01-31T23:11:28.189Z,81.47
2023-01-31T23:13:55.357Z,80.79
2023-01-31T23:16:23.581Z,81.01
2023-01-31T23:18:50.294Z,81.38
2023-01-31T23:21:18.410Z,81.30
2023-01-31T23:23:45.670Z,81.64
2023-01-31T23:26:12.639Z,81.41
2023-01-31T23:28:39.454Z,81.04
2023-01-31T23:31:06.265Z,81.60
2023-01-31T23:33:33.001Z,82.35
2023-01-31T23:35:59.836Z,80.61
2023-01-31T23:38:26.673Z,81.02
2023-01-31T23:40:53.845Z,81.63
2023-01-31T23:43:21.031Z,81.57
2023-01-31T23:45:47.732Z,81.21
2023-01-31T23:48:14.478Z,80.60
2023-01-31T23:50:41.245Z,80.73
2023-01-31T23:53:08.247Z,80.34
2023-01-31T23:55:34.946Z,80.29
2023-01-31T23:58:02.871Z,80.17
